Latest Weather Observations for Newman Airport

IDW60801

Issued at 1:33 pm WST Sunday 26 February 2017 (issued every 30 minutes, with the page automatically refreshed every 10 minutes)

About weather observations | Map of weather stations | Latest weather observations for WA | Other Formats
Station Details ID: 007176 Name: NEWMAN AERO Lat: -23.42 Lon: 119.80 Height: 524.0 m
Data from the previous 72 hours. | See also: Recent months at Newman Airport
Date/Time
WST
Temp
°C
App
Temp
°C
Dew
Point
°C
Rel
Hum
%
Delta-T
°C
Wind Press
QNH
hPa
Press
MSL
hPa
Rain since
9am
mm
Dir  Spd
km/h
Gust
km/h
Spd
kts
Gust
kts
26/01:30pm 36.7 33.7 9.3 19 16.1 E 15 26 8 14 1011.8 1007.4 0.0
26/01:00pm 36.6 33.0 8.4 18 16.4 E 17 28 9 15 1012.2 1007.8 0.0
26/12:30pm 36.4 31.6 5.6 15 17.1 E 20 35 11 19 1012.6 1008.3 0.0
26/12:00pm 36.1 32.2 9.6 20 15.6 NE 20 35 11 19 1012.9 1008.6 0.0
26/11:30am 35.6 31.8 11.3 23 14.7 NE 22 39 12 21 1013.5 1009.1 0.0
26/11:00am 35.2 32.8 12.8 26 13.8 NE 17 26 9 14 1013.8 1009.4 0.0
26/10:30am 34.3 32.2 14.7 30 12.4 NE 19 26 10 14 1014.1 1009.8 0.0
26/10:00am 33.0 31.8 15.0 33 11.4 NNE 15 26 8 14 1014.4 1010.1 0.0
26/09:30am 32.5 30.9 15.9 36 10.6 NE 19 26 10 14 1014.6 1010.3 0.0
26/09:00am 31.4 29.9 16.2 40 9.7 NNE 19 28 10 15 1014.6 1010.3 0.0
26/08:30am 30.7 30.0 16.3 42 9.2 NNE 15 22 8 12 1014.5 1010.2 0.0
26/08:00am 29.4 29.5 14.4 40 9.3 NE 7 11 4 6 1014.5 1010.2 0.0
26/07:30am 28.0 27.0 12.4 38 9.3 E 9 11 5 6 1014.3 1010.0 0.0
26/07:00am 26.2 25.3 11.5 40 8.6 ESE 7 11 4 6 1014.1 1009.8 0.0
26/06:30am 22.3 21.8 12.0 52 5.9 SSW 6 9 3 5 1014.0 1009.6 0.0
26/06:00am 21.3 21.7 11.1 52 5.8 CALM 0 0 0 0 1013.7 1009.3 0.0
26/05:30am 21.2 20.4 11.0 52 5.8 WSW 6 7 3 4 1013.5 1009.1 0.0
26/05:00am 21.8 22.3 11.5 52 5.9 CALM 0 0 0 0 1013.1 1008.8 0.0
26/04:30am 21.9 21.1 11.0 50 6.2 SSW 6 7 3 4 1012.8 1008.5 0.0
26/04:00am 22.4 21.6 10.9 48 6.5 SW 6 7 3 4 1012.6 1008.3 0.0
26/03:30am 22.7 22.1 10.5 46 6.9 SSW 4 9 2 5 1012.6 1008.3 0.0
26/03:00am 22.8 23.1 10.9 47 6.8 CALM 0 0 0 0 1012.5 1008.2 0.0
26/02:30am 23.4 23.6 10.5 44 7.3 CALM 0 0 0 0 1012.6 1008.3 0.0
26/02:00am 23.5 23.5 9.9 42 7.6 CALM 0 0 0 0 1012.9 1008.6 0.0
26/01:30am 23.6 23.7 10.3 43 7.5 CALM 0 0 0 0 1013.2 1008.9 0.0
26/01:00am 24.1 24.3 10.7 43 7.6 CALM 0 0 0 0 1013.4 1009.0 0.0
26/12:30am 24.6 24.8 10.5 41 8.0 CALM 0 0 0 0 1013.6 1009.2 0.0
26/12:00am 26.8 25.4 8.7 32 10.1 ENE 6 7 3 4 1013.8 1009.4 0.0
 
Date/Time
WST
Temp
°C
App
Temp
°C
Dew
Point
°C
Rel
Hum
%
Delta-T
°C
Wind Press
QNH
hPa
Press
MSL
hPa
Rain since
9am
mm
Dir  Spd
km/h
Gust
km/h
Spd
kts
Gust
kts
25/11:30pm 27.0 26.0 8.9 32 10.1 NE 4 7 2 4 1013.9 1009.5 0.0
25/11:00pm 27.7 25.6 8.1 29 10.9 E 9 11 5 6 1014.1 1009.8 0.0
25/10:30pm 28.0 26.2 7.8 28 11.2 E 7 11 4 6 1014.1 1009.8 0.0
25/10:00pm 28.8 27.0 7.9 27 11.6 ESE 7 9 4 5 1014.1 1009.8 0.0
25/09:30pm 29.4 27.4 7.3 25 12.2 E 7 9 4 5 1014.1 1009.8 0.0
25/09:00pm 29.8 28.0 7.1 24 12.5 E 6 9 3 5 1014.0 1009.6 0.0
25/08:30pm 30.9 28.8 6.7 22 13.3 ENE 7 9 4 5 1013.9 1009.5 0.0
25/08:00pm 31.8 29.2 6.1 20 14.1 E 9 11 5 6 1013.7 1009.3 0.0
25/07:30pm 32.6 29.6 6.0 19 14.6 E 11 15 6 8 1013.5 1009.1 0.0
25/07:00pm 33.8 30.7 5.4 17 15.6 E 11 15 6 8 1013.0 1008.7 0.0
25/06:30pm 34.8 32.0 5.3 16 16.2 ESE 9 15 5 8 1012.8 1008.5 0.0
25/06:00pm 35.9 32.3 5.2 15 16.9 ESE 13 17 7 9 1012.6 1008.3 0.0
25/05:30pm 35.8 32.6 5.1 15 16.9 ESE 11 17 6 9 1012.5 1008.2 0.0
25/05:00pm 36.9 32.2 5.0 14 17.6 SE 19 26 10 14 1012.5 1008.2 0.0
25/04:30pm 37.7 31.9 4.6 13 18.2 ESE 24 33 13 18 1012.6 1008.3 0.0
25/04:00pm 37.3 31.9 4.3 13 18.1 ESE 22 32 12 17 1012.8 1008.5 0.0
25/03:30pm 37.9 33.5 4.7 13 18.3 ESE 17 24 9 13 1013.1 1008.8 0.0
25/03:00pm 37.6 33.2 4.5 13 18.2 E 17 32 9 17 1013.2 1008.9 0.0
25/02:30pm 37.5 33.6 5.5 14 17.9 NE 15 26 8 14 1013.6 1009.2 0.0
25/02:00pm 37.5 32.3 5.5 14 17.9 E 22 39 12 21 1014.1 1009.8 0.0
25/01:30pm 37.4 32.8 5.4 14 17.8 ENE 19 28 10 15 1014.4 1010.1 0.0
25/01:00pm 37.3 32.1 5.3 14 17.8 ENE 22 30 12 16 1014.8 1010.5 0.0
25/12:30pm 36.8 31.3 5.9 15 17.3 NNE 24 39 13 21 1015.4 1011.0 0.0
25/12:00pm 36.1 30.7 6.3 16 16.7 NE 24 37 13 20 1015.9 1011.6 0.0
25/11:30am 36.4 31.6 5.6 15 17.1 NE 20 32 11 17 1016.3 1012.0 0.0
25/11:00am 35.3 29.6 6.6 17 16.1 NE 26 35 14 19 1016.7 1012.4 0.0
25/10:30am 34.7 29.0 6.9 18 15.6 NE 26 43 14 23 1016.9 1012.6 0.0
25/10:00am 34.7 30.0 7.7 19 15.4 NE 22 32 12 17 1017.1 1012.8 0.0
25/09:30am 33.5 28.7 7.5 20 14.7 NE 22 32 12 17 1017.5 1013.1 0.0
25/09:00am 32.2 28.0 8.4 23 13.5 ENE 20 30 11 16 1017.5 1013.1 0.0
25/08:30am 31.2 26.0 8.8 25 12.8 ENE 26 37 14 20 1017.6 1013.2 0.0
25/08:00am 30.2 24.4 8.0 25 12.4 ENE 28 37 15 20 1017.5 1013.1 0.0
25/07:30am 29.2 24.8 8.8 28 11.5 E 22 37 12 20 1017.2 1012.9 0.0
25/07:00am 28.1 24.1 8.9 30 10.8 E 20 32 11 17 1017.1 1012.8 0.0
25/06:30am 26.8 23.4 9.2 33 9.9 E 17 24 9 13 1016.9 1012.6 0.0
25/06:00am 26.8 23.7 8.7 32 10.1 E 15 20 8 11 1016.7 1012.4 0.0
25/05:30am 27.1 24.0 9.0 32 10.2 E 15 26 8 14 1016.2 1011.9 0.0
25/05:00am 27.6 24.5 9.0 31 10.5 E 15 24 8 13 1015.9 1011.6 0.0
25/04:30am 27.6 24.9 9.0 31 10.5 ESE 13 20 7 11 1015.8 1011.4 0.0
25/04:00am 25.5 24.1 9.7 37 8.9 SE 7 11 4 6 1015.6 1011.2 0.0
25/03:30am 24.3 23.4 11.3 44 7.5 S 7 9 4 5 1015.5 1011.1 0.0
25/03:00am 24.6 23.7 11.2 43 7.7 SW 7 9 4 5 1015.4 1011.0 0.0
25/02:30am 25.7 24.8 10.7 39 8.6 WNW 6 7 3 4 1015.6 1011.2 0.0
25/02:00am 27.5 26.8 10.2 34 9.9 N 4 6 2 3 1015.6 1011.2 0.0
25/01:30am 28.4 25.5 9.6 31 10.7 E 15 19 8 10 1015.6 1011.2 0.0
25/01:00am 27.9 26.3 10.1 33 10.2 E 9 13 5 7 1015.7 1011.3 0.0
25/12:30am 26.9 26.0 10.6 36 9.4 SE 6 7 3 4 1015.7 1011.3 0.0
25/12:00am 26.5 26.0 10.6 37 9.1 S 4 7 2 4 1015.7 1011.3 0.0
 
Date/Time
WST
Temp
°C
App
Temp
°C
Dew
Point
°C
Rel
Hum
%
Delta-T
°C
Wind Press
QNH
hPa
Press
MSL
hPa
Rain since
9am
mm
Dir  Spd
km/h
Gust
km/h
Spd
kts
Gust
kts
24/11:30pm 27.2 26.6 10.4 35 9.7 SE 4 6 2 3 1015.9 1011.6 0.0
24/11:00pm 28.1 26.8 9.9 32 10.4 SE 7 11 4 6 1016.2 1011.9 0.0
24/10:30pm 28.5 27.5 10.2 32 10.5 SE 6 11 3 6 1016.1 1011.8 0.0
24/10:00pm 29.0 28.0 10.2 31 10.8 ESE 6 9 3 5 1016.2 1011.9 0.0
24/09:30pm 29.8 28.1 9.9 29 11.5 ESE 9 11 5 6 1016.3 1012.0 0.0
24/09:00pm 30.4 28.9 9.3 27 12.1 ESE 7 11 4 6 1016.2 1011.9 0.0
24/08:30pm 31.7 29.8 7.4 22 13.6 E 7 9 4 5 1015.8 1011.4 0.0
24/08:00pm 32.6 30.5 6.7 20 14.4 E 7 9 4 5 1015.6 1011.2 0.0
24/07:30pm 33.1 30.7 7.1 20 14.6 ENE 9 11 5 6 1015.2 1010.9 0.0
24/07:00pm 33.9 31.0 6.3 18 15.3 NE 11 13 6 7 1014.9 1010.6 0.0
24/06:30pm 35.1 32.2 6.4 17 16.1 ENE 11 19 6 10 1014.5 1010.2 0.0
24/06:00pm 36.4 32.2 5.6 15 17.1 ENE 17 22 9 12 1014.4 1010.1 0.0
24/05:30pm 37.0 32.9 6.1 15 17.4 ENE 17 24 9 13 1014.2 1009.9 0.0
24/05:00pm 36.7 32.4 6.8 16 17.0 ENE 19 24 10 13 1014.2 1009.9 0.0
24/04:30pm 37.5 33.5 6.5 15 17.6 E 17 30 9 16 1014.1 1009.8 0.0
24/04:00pm 38.0 35.4 7.8 16 17.5 NE 11 19 6 10 1014.2 1009.9 0.0
24/03:30pm 37.5 34.3 8.3 17 17.0 ENE 15 24 8 13 1014.4 1010.1 0.0
24/03:00pm 37.6 34.8 8.4 17 17.0 E 13 24 7 13 1014.6 1010.3 0.0
24/02:30pm 37.1 33.6 8.8 18 16.6 E 17 30 9 16 1014.9 1010.6 0.0
24/02:00pm 36.8 33.6 8.6 18 16.4 E 15 22 8 12 1015.5 1011.1 0.0
24/01:30pm 36.3 33.6 9.0 19 16.0 E 13 28 7 15 1015.8 1011.4 0.0
24/01:00pm 35.8 32.8 9.3 20 15.5 ENE 15 32 8 17 1016.4 1012.1 0.0
24/12:30pm 35.4 32.0 9.0 20 15.4 E 17 33 9 18 1016.9 1012.6 0.0
24/12:00pm 34.6 31.6 9.1 21 14.8 E 15 22 8 12 1017.5 1013.1 0.0
24/11:30am 34.0 30.8 8.6 21 14.6 ENE 15 28 8 15 1017.9 1013.6 0.0
24/11:00am 32.9 28.8 7.7 21 14.2 E 19 26 10 14 1018.3 1014.0 0.0
24/10:30am 32.0 27.8 8.3 23 13.5 E 20 32 11 17 1018.6 1014.3 0.0
24/10:00am 31.3 27.2 7.7 23 13.2 E 19 26 10 14 1019.0 1014.7 0.0
24/09:30am 30.8 26.6 7.3 23 13.1 E 19 26 10 14 1019.2 1014.9 0.0
24/09:00am 30.3 25.9 7.5 24 12.7 ESE 20 30 11 16 1019.5 1015.2 0.0
24/08:30am 29.3 24.9 7.2 25 12.2 ESE 20 32 11 17 1019.6 1015.3 0.0
24/08:00am 28.3 24.0 7.0 26 11.6 ESE 19 30 10 16 1019.6 1015.3 0.0
24/07:30am 27.3 23.7 6.7 27 11.1 ESE 15 22 8 12 1019.6 1015.3 0.0
24/07:00am 25.6 21.9 6.3 29 10.2 ESE 15 20 8 11 1019.2 1014.9 0.0
24/06:30am 23.8 21.1 5.7 31 9.4 ESE 9 13 5 7 1019.1 1014.8 0.0
24/06:00am 23.8 20.6 5.2 30 9.6 SE 11 15 6 8 1018.9 1014.6 0.0
24/05:30am 24.3 21.1 5.1 29 9.9 SE 11 17 6 9 1018.6 1014.3 0.0
24/05:00am 24.7 20.6 4.5 27 10.3 SE 15 20 8 11 1018.3 1014.0 0.0
24/04:30am 24.9 20.8 4.1 26 10.6 ESE 15 20 8 11 1018.2 1013.9 0.0
24/04:00am 25.2 21.0 3.8 25 10.8 ESE 15 20 8 11 1018.0 1013.7 0.0
24/03:30am 25.1 21.3 3.7 25 10.8 ESE 13 15 7 8 1017.8 1013.5 0.0
24/03:00am 25.0 21.4 3.0 24 11.0 ESE 11 17 6 9 1017.6 1013.2 0.0
24/02:30am 24.8 21.7 3.5 25 10.7 SE 9 15 5 8 1017.6 1013.2 0.0
24/02:00am 24.8 21.7 3.5 25 10.7 SE 9 13 5 7 1017.6 1013.2 0.0
24/01:30am 24.6 21.8 3.3 25 10.7 ESE 7 9 4 5 1017.8 1013.5 0.0
24/01:00am 22.7 20.8 6.5 35 8.5 SE 6 9 3 5 1018.0 1013.7 0.0
24/12:30am 25.1 22.4 3.7 25 10.8 ESE 7 11 4 6 1018.2 1013.9 0.0
24/12:00am 25.3 22.7 3.3 24 11.0 E 6 7 3 4 1018.2 1013.9 0.0
 
Date/Time
WST
Temp
°C
App
Temp
°C
Dew
Point
°C
Rel
Hum
%
Delta-T
°C
Wind Press
QNH
hPa
Press
MSL
hPa
Rain since
9am
mm
Dir  Spd
km/h
Gust
km/h
Spd
kts
Gust
kts
23/11:30pm 24.8 23.8 5.6 29 10.0 CALM 0 0 0 0 1018.2 1013.9 0.0
23/11:00pm 26.0 23.2 3.3 23 11.4 ESE 7 9 4 5 1018.2 1013.9 0.0
23/10:30pm 26.3 23.9 4.1 24 11.4 SE 6 9 3 5 1018.1 1013.8 0.0
23/10:00pm 27.3 24.4 4.4 23 11.9 SE 9 11 5 6 1018.2 1013.9 0.0
23/09:30pm 27.7 24.8 4.7 23 12.0 ESE 9 11 5 6 1018.1 1013.8 0.0
23/09:00pm 28.7 25.5 4.9 22 12.5 ESE 11 15 6 8 1017.9 1013.6 0.0
23/08:30pm 29.5 26.3 4.9 21 13.0 ESE 11 15 6 8 1017.7 1013.4 0.0
23/08:00pm 30.1 27.2 4.7 20 13.5 ESE 9 11 5 6 1017.2 1012.9 0.0
23/07:30pm 31.1 28.6 4.8 19 14.1 SE 7 9 4 5 1016.8 1012.5 0.0
23/07:00pm 32.2 29.2 4.1 17 14.9 ESE 9 13 5 7 1016.4 1012.1 0.0
23/06:30pm 33.7 29.8 3.5 15 16.0 SE 13 20 7 11 1015.9 1011.6 0.0
23/06:00pm 34.8 30.1 3.4 14 16.7 SE 17 26 9 14 1015.5 1011.1 0.0
23/05:30pm 35.2 30.0 2.6 13 17.2 SE 19 26 10 14 1014.9 1010.6 0.0
23/05:00pm 35.4 30.1 2.8 13 17.3 SE 20 28 11 15 1014.8 1010.5 0.0
23/04:30pm 35.7 31.0 3.0 13 17.4 ESE 17 24 9 13 1014.6 1010.3 0.0
23/04:00pm 36.2 31.9 3.4 13 17.6 SE 15 24 8 13 1014.8 1010.5 0.0
23/03:30pm 36.6 33.1 3.7 13 17.8 SE 11 19 6 10 1014.9 1010.6 0.0
23/03:00pm 35.8 32.1 4.2 14 17.1 ENE 13 28 7 15 1015.1 1010.8 0.0
23/02:30pm 35.4 32.1 4.8 15 16.7 E 11 26 6 14 1015.6 1011.2 0.0
23/02:00pm 34.8 31.5 4.4 15 16.5 SE 11 20 6 11 1016.0 1011.7 0.0

Other Formats:

Comma delimited format used in spreadsheet applications
http://www.bom.gov.au/fwo/IDW60801/IDW60801.94317.axf

JavaScript Object Notation format (JSON) in row-major order
http://www.bom.gov.au/fwo/IDW60801/IDW60801.94317.json